createdAt,value
2022-11-20T00:00:02.405Z,2.04
2022-11-20T00:02:33.674Z,1.97
2022-11-20T00:05:00.399Z,2.06
2022-11-20T00:07:27.018Z,2.03
2022-11-20T00:09:53.633Z,1.96
2022-11-20T00:12:20.187Z,2.06
2022-11-20T00:14:46.793Z,2.12
2022-11-20T00:17:13.317Z,2.00
2022-11-20T00:19:39.913Z,1.88
2022-11-20T00:22:06.497Z,1.90
2022-11-20T00:24:33.081Z,1.86
2022-11-20T00:26:59.626Z,1.77
2022-11-20T00:29:26.389Z,1.68
2022-11-20T00:31:52.908Z,1.85
2022-11-20T00:34:19.499Z,1.74
2022-11-20T00:36:46.096Z,1.59
2022-11-20T00:39:12.656Z,1.55
2022-11-20T00:41:39.194Z,1.53
2022-11-20T00:44:05.828Z,1.69
2022-11-20T00:46:32.422Z,1.66
2022-11-20T00:48:59.183Z,1.65
2022-11-20T00:51:27.960Z,1.65
2022-11-20T00:53:58.742Z,1.57
2022-11-20T00:56:25.638Z,1.70
2022-11-20T00:58:52.409Z,1.67
2022-11-20T01:01:25.338Z,1.66
2022-11-20T01:03:54.354Z,1.68
2022-11-20T01:06:25.967Z,1.85
2022-11-20T01:08:54.989Z,1.89
2022-11-20T01:11:30.971Z,1.90
2022-11-20T01:13:59.465Z,1.95
2022-11-20T01:16:38.017Z,1.90
2022-11-20T01:19:07.630Z,1.89
2022-11-20T01:21:39.918Z,2.16
2022-11-20T01:24:09.054Z,2.02
2022-11-20T01:26:38.381Z,2.20
2022-11-20T01:29:05.630Z,2.36
2022-11-20T01:31:34.577Z,1.99
2022-11-20T01:34:06.693Z,2.05
2022-11-20T01:36:34.552Z,2.07
2022-11-20T01:39:04.213Z,2.04
2022-11-20T01:41:51.424Z,2.27
2022-11-20T01:44:21.798Z,2.60
2022-11-20T01:47:01.757Z,2.66
2022-11-20T01:49:39.205Z,2.32
2022-11-20T01:52:12.384Z,2.14
2022-11-20T01:55:13.948Z,2.32
2022-11-20T01:57:41.372Z,2.24
2022-11-20T02:00:10.462Z,2.12
2022-11-20T02:02:43.740Z,2.27
2022-11-20T02:05:23.777Z,2.28
2022-11-20T02:07:51.552Z,2.09
2022-11-20T02:10:18.165Z,2.00
2022-11-20T02:13:03.594Z,1.96
2022-11-20T02:15:30.674Z,1.95
2022-11-20T02:17:57.690Z,1.94
2022-11-20T02:20:24.391Z,1.94
2022-11-20T02:23:14.381Z,2.09
2022-11-20T02:25:43.832Z,2.11
2022-11-20T02:28:11.241Z,2.22
2022-11-20T02:30:37.813Z,2.28
2022-11-20T02:33:04.535Z,2.19
2022-11-20T02:35:31.076Z,2.15
2022-11-20T02:38:00.484Z,2.29
2022-11-20T02:40:27.381Z,2.25
2022-11-20T02:42:54.957Z,2.22
2022-11-20T02:45:21.529Z,2.36
2022-11-20T02:47:48.085Z,2.02
2022-11-20T02:50:14.706Z,1.94
2022-11-20T02:52:41.562Z,1.98
2022-11-20T02:55:08.428Z,1.82
2022-11-20T02:57:35.441Z,1.91
2022-11-20T03:00:02.387Z,1.75
2022-11-20T03:02:32.375Z,1.70
2022-11-20T03:04:59.476Z,1.86
2022-11-20T03:07:26.057Z,2.01
2022-11-20T03:09:52.699Z,1.99
2022-11-20T03:12:19.346Z,2.05
2022-11-20T03:14:50.216Z,1.90
2022-11-20T03:17:19.436Z,1.69
2022-11-20T03:19:46.000Z,1.66
2022-11-20T03:22:12.641Z,1.80
2022-11-20T03:24:39.202Z,1.85
2022-11-20T03:27:05.802Z,1.73
2022-11-20T03:29:32.353Z,1.74
2022-11-20T03:31:58.972Z,1.60
2022-11-20T03:34:25.517Z,1.90
2022-11-20T03:36:52.086Z,1.70
2022-11-20T03:39:18.818Z,1.74
2022-11-20T03:41:45.857Z,1.88
2022-11-20T03:44:13.172Z,1.87
2022-11-20T03:46:39.904Z,1.73
2022-11-20T03:49:06.736Z,1.83
2022-11-20T03:51:35.724Z,2.00
2022-11-20T03:54:05.697Z,1.79
2022-11-20T03:56:35.328Z,1.91
2022-11-20T03:59:02.051Z,1.66
2022-11-20T04:01:35.676Z,1.76
2022-11-20T04:04:02.925Z,1.75
2022-11-20T04:06:34.392Z,1.75
2022-11-20T04:09:01.385Z,1.90
2022-11-20T04:11:30.687Z,1.96
2022-11-20T04:14:02.352Z,1.75
2022-11-20T04:16:35.091Z,1.96
2022-11-20T04:19:03.899Z,1.78
2022-11-20T04:21:30.600Z,1.85
2022-11-20T04:23:58.431Z,2.08
2022-11-20T04:26:26.732Z,1.80
2022-11-20T04:28:53.581Z,1.86
2022-11-20T04:31:25.916Z,2.05
2022-11-20T04:33:52.838Z,1.83
2022-11-20T04:36:21.941Z,1.94
2022-11-20T04:38:56.780Z,1.96
2022-11-20T04:41:26.373Z,1.97
2022-11-20T04:44:00.330Z,2.26
2022-11-20T04:46:29.034Z,1.94
2022-11-20T04:48:56.076Z,2.05
2022-11-20T04:51:22.913Z,1.95
2022-11-20T04:53:49.558Z,1.81
2022-11-20T04:56:16.797Z,1.72
2022-11-20T04:58:44.133Z,1.83
2022-11-20T05:01:16.772Z,1.80
2022-11-20T05:03:44.565Z,1.57
2022-11-20T05:06:15.217Z,1.74
2022-11-20T05:08:42.632Z,1.54
2022-11-20T05:11:11.787Z,1.62
2022-11-20T05:13:38.739Z,1.59
2022-11-20T05:16:08.277Z,1.63
2022-11-20T05:18:36.501Z,1.70
2022-11-20T05:21:03.558Z,1.68
2022-11-20T05:23:31.668Z,1.61
2022-11-20T05:25:59.596Z,1.45
2022-11-20T05:28:28.518Z,1.49
2022-11-20T05:30:55.366Z,1.63
2022-11-20T05:33:22.183Z,1.59
2022-11-20T05:35:49.765Z,1.57
2022-11-20T05:38:16.677Z,1.85
2022-11-20T05:40:43.402Z,1.86
2022-11-20T05:43:10.006Z,1.47
2022-11-20T05:45:36.623Z,1.34
2022-11-20T05:48:03.755Z,1.44
2022-11-20T05:50:30.461Z,1.51
2022-11-20T05:53:00.574Z,1.76
2022-11-20T05:55:28.403Z,1.89
2022-11-20T05:57:56.076Z,1.62
2022-11-20T06:00:23.345Z,1.62
2022-11-20T06:02:50.118Z,1.66
2022-11-20T06:05:17.029Z,1.45
2022-11-20T06:07:43.685Z,1.41
2022-11-20T06:10:10.386Z,1.66
2022-11-20T06:12:36.929Z,1.53
2022-11-20T06:15:04.830Z,1.60
2022-11-20T06:17:31.466Z,1.47
2022-11-20T06:19:58.184Z,1.54
2022-11-20T06:22:24.740Z,1.64
2022-11-20T06:24:51.345Z,1.54
2022-11-20T06:27:17.969Z,1.41
2022-11-20T06:29:44.575Z,1.54
2022-11-20T06:32:11.178Z,1.45
2022-11-20T06:34:37.774Z,1.47
2022-11-20T06:37:04.343Z,1.62
2022-11-20T06:39:30.978Z,1.79
2022-11-20T06:41:59.174Z,1.87
2022-11-20T06:44:26.513Z,2.10
2022-11-20T06:46:53.185Z,1.91
2022-11-20T06:49:20.123Z,1.76
2022-11-20T06:51:46.875Z,1.48
2022-11-20T06:54:13.580Z,1.31
2022-11-20T06:56:40.104Z,1.74
2022-11-20T06:59:08.235Z,1.65
2022-11-20T07:01:36.011Z,1.55
2022-11-20T07:04:04.137Z,1.62
2022-11-20T07:06:31.094Z,1.30
2022-11-20T07:08:58.113Z,1.66
2022-11-20T07:11:24.950Z,1.77
2022-11-20T07:13:51.571Z,1.66
2022-11-20T07:16:18.221Z,1.44
2022-11-20T07:18:49.917Z,1.52
2022-11-20T07:21:17.348Z,1.41
2022-11-20T07:23:43.917Z,1.45
2022-11-20T07:26:11.870Z,1.52
2022-11-20T07:28:38.945Z,1.40
2022-11-20T07:31:07.600Z,1.53
2022-11-20T07:33:34.214Z,1.44
2022-11-20T07:36:01.219Z,1.35
2022-11-20T07:38:28.322Z,1.43
2022-11-20T07:40:56.708Z,1.65
2022-11-20T07:43:23.260Z,1.54
2022-11-20T07:45:50.060Z,1.21
2022-11-20T07:48:16.697Z,1.49
2022-11-20T07:50:43.303Z,1.67
2022-11-20T07:53:09.942Z,1.85
2022-11-20T07:55:37.668Z,1.61
2022-11-20T07:58:04.258Z,1.78
2022-11-20T08:00:31.008Z,1.81
2022-11-20T08:02:57.613Z,1.48
2022-11-20T08:05:24.301Z,1.53
2022-11-20T08:07:50.902Z,1.33
2022-11-20T08:10:17.747Z,1.59
2022-11-20T08:13:07.367Z,1.42
2022-11-20T08:15:34.443Z,1.87
2022-11-20T08:18:34.388Z,2.08
2022-11-20T08:21:05.069Z,1.80
2022-11-20T08:23:32.040Z,1.75
2022-11-20T08:25:58.566Z,1.74
2022-11-20T08:28:25.177Z,1.60
2022-11-20T08:30:51.881Z,1.43
2022-11-20T08:33:19.378Z,1.91
2022-11-20T08:35:46.609Z,1.85
2022-11-20T08:38:13.242Z,2.08
2022-11-20T08:40:39.772Z,2.05
2022-11-20T08:43:06.353Z,1.70
2022-11-20T08:45:35.036Z,1.60
2022-11-20T08:48:03.886Z,1.49
2022-11-20T08:50:33.139Z,1.74
2022-11-20T08:53:04.663Z,2.04
2022-11-20T08:55:31.255Z,1.78
2022-11-20T08:57:57.770Z,1.79
2022-11-20T09:00:24.466Z,2.15
2022-11-20T09:02:51.049Z,1.99
2022-11-20T09:05:17.649Z,1.97
2022-11-20T09:07:44.412Z,2.05
2022-11-20T09:10:23.599Z,2.40
2022-11-20T09:12:52.690Z,2.03
2022-11-20T09:15:20.332Z,1.78
2022-11-20T09:17:53.809Z,2.39
2022-11-20T09:20:20.755Z,2.23
2022-11-20T09:22:47.510Z,2.12
2022-11-20T09:25:14.259Z,2.25
2022-11-20T09:27:42.434Z,2.04
2022-11-20T09:30:11.391Z,2.39
2022-11-20T09:32:39.969Z,2.41
2022-11-20T09:35:06.922Z,2.25
2022-11-20T09:37:33.483Z,2.16
2022-11-20T09:40:00.267Z,2.26
2022-11-20T09:42:43.061Z,2.33
2022-11-20T09:45:28.335Z,2.25
2022-11-20T09:48:04.939Z,2.24
2022-11-20T09:50:50.934Z,2.68
2022-11-20T09:53:23.519Z,2.87
2022-11-20T09:55:50.408Z,4.20
2022-11-20T09:58:30.671Z,4.70
2022-11-20T10:01:05.206Z,4.61
2022-11-20T10:03:59.303Z,4.44
2022-11-20T10:06:42.938Z,4.45
2022-11-20T10:09:22.827Z,3.77
2022-11-20T10:11:49.803Z,3.48
2022-11-20T10:14:55.462Z,3.32
2022-11-20T10:17:24.814Z,3.10
2022-11-20T10:20:15.745Z,3.40
2022-11-20T10:23:25.820Z,3.44
2022-11-20T10:26:01.622Z,3.48
2022-11-20T10:28:48.212Z,3.30
2022-11-20T10:31:32.399Z,3.61
2022-11-20T10:34:11.993Z,3.52
2022-11-20T10:36:59.357Z,3.62
2022-11-20T10:39:36.216Z,3.70
2022-11-20T10:42:03.343Z,3.49
2022-11-20T10:44:53.753Z,3.58
2022-11-20T10:47:22.942Z,3.22
2022-11-20T10:49:54.528Z,3.38
2022-11-20T10:52:45.876Z,3.12
2022-11-20T10:55:49.277Z,3.76
2022-11-20T10:58:46.132Z,3.78
2022-11-20T11:01:18.869Z,3.33
2022-11-20T11:03:45.944Z,3.66
2022-11-20T11:06:43.713Z,4.73
2022-11-20T11:09:17.165Z,5.29
2022-11-20T11:11:43.854Z,5.12
2022-11-20T11:14:15.678Z,5.42
2022-11-20T11:16:54.223Z,4.97
2022-11-20T11:19:21.714Z,4.29
2022-11-20T11:21:55.548Z,4.15
2022-11-20T11:24:42.080Z,3.97
2022-11-20T11:27:17.372Z,4.11
2022-11-20T11:29:45.166Z,4.24
2022-11-20T11:32:22.729Z,4.36
2022-11-20T11:35:19.477Z,4.28
2022-11-20T11:37:48.916Z,3.92
2022-11-20T11:40:25.653Z,3.95
2022-11-20T11:42:59.970Z,4.12
2022-11-20T11:45:27.137Z,4.46
2022-11-20T11:47:56.808Z,5.66
2022-11-20T11:50:26.297Z,6.89
2022-11-20T11:53:11.589Z,7.24
2022-11-20T11:55:54.874Z,8.02
2022-11-20T11:58:47.750Z,7.78
2022-11-20T12:01:40.004Z,7.14
2022-11-20T12:04:15.277Z,7.11
2022-11-20T12:06:46.720Z,5.87
2022-11-20T12:09:13.470Z,6.32
2022-11-20T12:11:48.685Z,5.88
2022-11-20T12:14:31.708Z,5.56
2022-11-20T12:16:58.726Z,5.12
2022-11-20T12:19:26.021Z,4.84
2022-11-20T12:22:17.670Z,5.23
2022-11-20T12:24:53.397Z,4.92
2022-11-20T12:27:38.589Z,4.56
2022-11-20T12:30:10.980Z,4.19
2022-11-20T12:33:14.805Z,4.37
2022-11-20T12:35:59.370Z,4.05
2022-11-20T12:38:52.855Z,4.02
2022-11-20T12:41:59.405Z,3.65
2022-11-20T12:45:05.596Z,3.29
2022-11-20T12:48:09.275Z,3.30
2022-11-20T12:51:14.997Z,3.47
2022-11-20T12:53:50.788Z,3.09
2022-11-20T12:56:20.372Z,3.11
2022-11-20T12:59:02.288Z,2.92
2022-11-20T13:01:52.915Z,2.85
2022-11-20T13:04:22.371Z,2.83
2022-11-20T13:06:49.163Z,2.83
2022-11-20T13:09:20.245Z,3.11
2022-11-20T13:12:24.676Z,3.25
2022-11-20T13:14:59.104Z,3.16
2022-11-20T13:17:29.607Z,3.22
2022-11-20T13:19:59.767Z,3.32
2022-11-20T13:22:52.738Z,3.38
2022-11-20T13:25:28.281Z,3.38
2022-11-20T13:27:56.991Z,3.28
2022-11-20T13:30:28.793Z,3.35
2022-11-20T13:33:24.543Z,3.36
2022-11-20T13:36:20.203Z,3.25
2022-11-20T13:38:52.440Z,3.05
2022-11-20T13:41:36.485Z,3.18
2022-11-20T13:44:26.463Z,3.37
2022-11-20T13:46:53.332Z,3.30
2022-11-20T13:49:32.663Z,3.53
2022-11-20T13:52:09.904Z,3.74
2022-11-20T13:54:52.763Z,4.01
2022-11-20T13:57:31.504Z,3.83
2022-11-20T14:00:18.013Z,4.03
2022-11-20T14:02:51.549Z,3.52
2022-11-20T14:05:23.681Z,3.64
2022-11-20T14:07:52.577Z,3.65
2022-11-20T14:10:30.065Z,4.03
2022-11-20T14:12:58.535Z,4.05
2022-11-20T14:15:36.613Z,3.95
2022-11-20T14:18:15.106Z,4.16
2022-11-20T14:20:43.114Z,4.00
2022-11-20T14:23:11.835Z,4.01
2022-11-20T14:25:44.010Z,4.25
2022-11-20T14:28:25.803Z,4.15
2022-11-20T14:30:53.317Z,3.73
2022-11-20T14:33:21.051Z,4.08
2022-11-20T14:35:56.321Z,3.85
2022-11-20T14:38:26.999Z,3.78
2022-11-20T14:40:53.895Z,3.69
2022-11-20T14:43:26.825Z,3.64
2022-11-20T14:46:02.362Z,3.39
2022-11-20T14:48:33.537Z,3.18
2022-11-20T14:51:00.174Z,3.23
2022-11-20T14:53:27.048Z,3.16
2022-11-20T14:56:00.126Z,3.46
2022-11-20T14:58:34.233Z,3.31
2022-11-20T15:01:07.074Z,3.38
2022-11-20T15:03:39.329Z,3.09
2022-11-20T15:06:07.552Z,3.33
2022-11-20T15:08:34.258Z,3.31
2022-11-20T15:11:01.086Z,3.40
2022-11-20T15:13:45.713Z,3.48
2022-11-20T15:16:23.536Z,3.80
2022-11-20T15:18:50.350Z,3.63
2022-11-20T15:21:19.725Z,3.54
2022-11-20T15:23:46.393Z,3.27
2022-11-20T15:26:19.818Z,3.57
2022-11-20T15:28:49.846Z,3.73
2022-11-20T15:31:19.458Z,3.55
2022-11-20T15:33:46.391Z,3.62
2022-11-20T15:36:13.533Z,3.65
2022-11-20T15:38:40.279Z,3.66
2022-11-20T15:41:07.454Z,3.68
2022-11-20T15:43:34.120Z,3.36
2022-11-20T15:46:04.240Z,3.26
2022-11-20T15:48:35.778Z,3.14
2022-11-20T15:51:21.186Z,3.25
2022-11-20T15:53:47.861Z,2.89
2022-11-20T15:56:15.447Z,3.40
2022-11-20T15:58:42.214Z,3.33
2022-11-20T16:01:17.626Z,3.53
2022-11-20T16:03:44.845Z,3.76
2022-11-20T16:06:11.874Z,3.71
2022-11-20T16:08:38.497Z,3.75
2022-11-20T16:11:05.431Z,3.61
2022-11-20T16:13:51.670Z,3.82
2022-11-20T16:16:31.243Z,4.03
2022-11-20T16:18:58.608Z,3.77
2022-11-20T16:21:32.376Z,3.42
2022-11-20T16:24:07.316Z,3.83
2022-11-20T16:26:34.583Z,3.60
2022-11-20T16:29:03.433Z,3.57
2022-11-20T16:31:30.669Z,3.61
2022-11-20T16:33:59.663Z,3.19
2022-11-20T16:36:28.524Z,3.44
2022-11-20T16:38:56.965Z,3.43
2022-11-20T16:41:24.620Z,3.73
2022-11-20T16:43:52.077Z,3.52
2022-11-20T16:46:21.468Z,3.26
2022-11-20T16:49:04.463Z,3.66
2022-11-20T16:51:34.375Z,3.33
2022-11-20T16:54:09.189Z,3.32
2022-11-20T16:56:36.301Z,3.23
2022-11-20T16:59:03.858Z,3.37
2022-11-20T17:01:31.383Z,3.58
2022-11-20T17:04:00.796Z,3.24
2022-11-20T17:06:29.940Z,3.30
2022-11-20T17:08:57.757Z,3.26
2022-11-20T17:11:25.147Z,3.18
2022-11-20T17:13:52.004Z,3.21
2022-11-20T17:16:22.202Z,3.06
2022-11-20T17:18:50.164Z,3.15
2022-11-20T17:21:18.061Z,3.04
2022-11-20T17:23:46.005Z,3.10
2022-11-20T17:26:17.635Z,3.03
2022-11-20T17:28:53.771Z,3.09
2022-11-20T17:31:20.364Z,3.04
2022-11-20T17:33:47.640Z,3.09
2022-11-20T17:36:17.554Z,3.08
2022-11-20T17:38:44.656Z,2.92
2022-11-20T17:41:14.076Z,2.77
2022-11-20T17:43:41.238Z,2.40
2022-11-20T17:46:09.906Z,2.49
2022-11-20T17:48:37.372Z,2.49
2022-11-20T17:51:06.513Z,2.54
2022-11-20T17:53:35.776Z,2.64
2022-11-20T17:56:21.092Z,2.51
2022-11-20T17:58:47.805Z,2.52
2022-11-20T18:01:14.540Z,2.56
2022-11-20T18:03:41.317Z,2.63
2022-11-20T18:06:22.342Z,2.63
2022-11-20T18:08:50.074Z,2.29
2022-11-20T18:11:18.647Z,2.33
2022-11-20T18:14:06.455Z,2.13
2022-11-20T18:16:36.360Z,1.90
2022-11-20T18:19:03.213Z,1.70
2022-11-20T18:21:31.436Z,2.03
2022-11-20T18:23:58.626Z,1.92
2022-11-20T18:26:25.769Z,2.08
2022-11-20T18:28:53.122Z,1.95
2022-11-20T18:31:20.328Z,2.07
2022-11-20T18:33:47.340Z,1.75
2022-11-20T18:36:16.752Z,1.91
2022-11-20T18:38:47.397Z,1.60
2022-11-20T18:41:39.428Z,1.91
2022-11-20T18:44:30.398Z,1.83
2022-11-20T18:46:57.055Z,1.63
2022-11-20T18:49:23.802Z,1.34
2022-11-20T18:51:50.427Z,1.63
2022-11-20T18:54:16.990Z,1.44
2022-11-20T18:56:43.662Z,1.66
2022-11-20T18:59:11.127Z,1.71
2022-11-20T19:01:37.796Z,1.63
2022-11-20T19:04:11.556Z,1.40
2022-11-20T19:06:39.490Z,1.23
2022-11-20T19:09:09.053Z,1.37
2022-11-20T19:11:36.678Z,1.42
2022-11-20T19:14:03.577Z,1.38
2022-11-20T19:16:31.441Z,1.00
2022-11-20T19:19:03.592Z,0.74
2022-11-20T19:21:31.048Z,1.01
2022-11-20T19:23:59.280Z,1.41
2022-11-20T19:26:26.477Z,1.57
2022-11-20T19:28:53.910Z,1.69
2022-11-20T19:31:24.587Z,1.70
2022-11-20T19:33:59.664Z,1.65
2022-11-20T19:36:29.236Z,1.19
2022-11-20T19:38:55.902Z,0.79
2022-11-20T19:41:31.720Z,1.15
2022-11-20T19:44:04.106Z,1.04
2022-11-20T19:46:32.961Z,0.96
2022-11-20T19:49:00.056Z,1.07
2022-11-20T19:51:32.175Z,1.16
2022-11-20T19:53:59.751Z,1.46
2022-11-20T19:56:28.177Z,1.66
2022-11-20T19:58:55.878Z,1.75
2022-11-20T20:01:24.387Z,1.62
2022-11-20T20:03:51.444Z,1.57
2022-11-20T20:06:20.885Z,1.86
2022-11-20T20:08:53.480Z,1.87
2022-11-20T20:11:21.747Z,1.94
2022-11-20T20:13:48.296Z,1.90
2022-11-20T20:16:18.535Z,1.92
2022-11-20T20:18:45.332Z,1.73
2022-11-20T20:21:14.277Z,1.99
2022-11-20T20:23:41.556Z,2.11
2022-11-20T20:26:12.797Z,2.19
2022-11-20T20:28:40.273Z,2.15
2022-11-20T20:31:14.991Z,2.24
2022-11-20T20:33:42.272Z,2.19
2022-11-20T20:36:12.080Z,2.30
2022-11-20T20:38:38.888Z,2.35
2022-11-20T20:41:05.734Z,2.28
2022-11-20T20:43:52.361Z,2.39
2022-11-20T20:46:19.247Z,2.42
2022-11-20T20:48:49.104Z,2.44
2022-11-20T20:51:19.717Z,2.32
2022-11-20T20:53:46.455Z,2.30
2022-11-20T20:56:13.258Z,2.37
2022-11-20T20:58:41.015Z,2.11
2022-11-20T21:01:11.129Z,2.44
2022-11-20T21:03:38.068Z,2.49
2022-11-20T21:06:06.157Z,2.58
2022-11-20T21:08:32.993Z,2.59
2022-11-20T21:11:05.482Z,2.63
2022-11-20T21:13:33.469Z,2.48
2022-11-20T21:16:00.731Z,2.52
2022-11-20T21:18:27.866Z,2.38
2022-11-20T21:21:14.090Z,2.40
2022-11-20T21:23:42.127Z,2.61
2022-11-20T21:26:09.493Z,2.49
2022-11-20T21:28:37.568Z,2.37
2022-11-20T21:31:10.021Z,2.27
2022-11-20T21:33:44.728Z,2.32
2022-11-20T21:36:14.184Z,2.43
2022-11-20T21:38:41.284Z,2.32
2022-11-20T21:41:10.123Z,2.43
2022-11-20T21:43:37.070Z,2.35
2022-11-20T21:46:05.910Z,2.53
2022-11-20T21:48:34.046Z,2.39
2022-11-20T21:51:15.425Z,2.57
2022-11-20T21:53:42.571Z,2.23
2022-11-20T21:56:10.618Z,2.32
2022-11-20T21:58:38.773Z,2.40
2022-11-20T22:01:14.635Z,2.39
2022-11-20T22:03:41.995Z,2.63
2022-11-20T22:06:09.732Z,2.92
2022-11-20T22:08:37.869Z,2.65
2022-11-20T22:11:12.573Z,2.10
2022-11-20T22:13:58.403Z,2.04
2022-11-20T22:16:25.360Z,1.97
2022-11-20T22:18:54.512Z,2.01
2022-11-20T22:21:23.762Z,2.13
2022-11-20T22:23:50.916Z,2.12
2022-11-20T22:26:19.870Z,2.25
2022-11-20T22:28:48.776Z,2.34
2022-11-20T22:31:16.455Z,2.37
2022-11-20T22:33:43.166Z,2.34
2022-11-20T22:36:30.182Z,1.92
2022-11-20T22:38:57.483Z,2.11
2022-11-20T22:41:28.565Z,1.98
2022-11-20T22:43:57.635Z,2.01
2022-11-20T22:46:25.521Z,1.79
2022-11-20T22:48:57.267Z,1.66
2022-11-20T22:51:26.310Z,1.96
2022-11-20T22:53:53.433Z,1.72
2022-11-20T22:56:20.596Z,2.10
2022-11-20T22:58:49.243Z,1.98
2022-11-20T23:01:20.985Z,2.13
2022-11-20T23:03:50.014Z,2.32
2022-11-20T23:06:18.788Z,2.40
2022-11-20T23:08:46.156Z,2.15
2022-11-20T23:11:15.149Z,1.77
2022-11-20T23:13:42.771Z,1.67
2022-11-20T23:16:13.516Z,2.30
2022-11-20T23:18:40.800Z,1.91
2022-11-20T23:21:13.357Z,1.68
2022-11-20T23:23:40.688Z,1.87
2022-11-20T23:26:09.797Z,2.01
2022-11-20T23:28:37.182Z,2.12
2022-11-20T23:31:04.749Z,2.34
2022-11-20T23:33:31.740Z,2.61
2022-11-20T23:35:58.363Z,2.15
2022-11-20T23:38:25.023Z,2.42
2022-11-20T23:40:52.430Z,2.32
2022-11-20T23:43:21.053Z,2.28
2022-11-20T23:45:50.534Z,2.68
2022-11-20T23:48:18.374Z,2.62
2022-11-20T23:50:45.161Z,2.41
2022-11-20T23:53:14.195Z,2.33
2022-11-20T23:55:51.235Z,2.27
2022-11-20T23:58:18.933Z,2.06
